Time;durP1;ratioP1;P1;durP2;ratioP2;P2;SDS_P1;SDS_P2;PMS_P1;PMS_P2;Temp;Humidity;BMP_temperature;BMP_pressure;BME280_temperature;BME280_humidity;BME280_pressure;Samples;Min_cycle;Max_cycle;Signal;HPM_P1;HPM_P2
2021/01/17 00:00:20;;;;;;;21.57;11.30;;;-1.30;99.90;;;;;;5084651;28;20182;-76
2021/01/17 00:02:47;;;;;;;18.20;10.47;;;-1.40;99.90;;;;;;5081202;28;20184;-76
2021/01/17 00:05:24;;;;;;;18.33;10.40;;;-1.40;99.90;;;;;;5083544;28;21000;-76
2021/01/17 00:07:50;;;;;;;18.07;9.90;;;-1.40;99.90;;;;;;5081519;28;20445;-76
2021/01/17 00:10:19;;;;;;;20.47;11.27;;;-1.40;99.90;;;;;;5084452;28;20425;-76
2021/01/17 00:12:49;;;;;;;20.20;11.10;;;-1.40;99.90;;;;;;5082111;28;20431;-76
2021/01/17 00:15:16;;;;;;;23.03;12.10;;;-1.40;99.90;;;;;;5084159;28;20431;-76
2021/01/17 00:17:42;;;;;;;19.40;11.00;;;-1.30;99.90;;;;;;5082199;28;20443;-77
2021/01/17 00:20:09;;;;;;;20.40;11.20;;;-1.40;99.90;;;;;;5083475;28;20469;-77
2021/01/17 00:22:35;;;;;;;22.23;12.33;;;-1.40;99.90;;;;;;5083384;28;20457;-76
2021/01/17 00:25:02;;;;;;;22.13;10.70;;;-1.40;99.90;;;;;;5082133;28;20507;-76
2021/01/17 00:27:28;;;;;;;15.90;10.27;;;-1.40;99.90;;;;;;5083919;28;20401;-76
2021/01/17 00:29:53;;;;;;;20.70;10.87;;;-1.30;99.90;;;;;;5081209;28;20403;-76
2021/01/17 00:32:18;;;;;;;18.67;11.60;;;-1.30;99.90;;;;;;5084442;28;20179;-77
2021/01/17 00:34:45;;;;;;;17.23;9.97;;;-1.30;99.90;;;;;;5080773;28;20264;-76
2021/01/17 00:37:14;;;;;;;19.50;11.23;;;-1.30;99.90;;;;;;5083302;28;20184;-76
2021/01/17 00:39:40;;;;;;;19.53;10.80;;;-1.40;99.90;;;;;;5082102;28;20399;-76
2021/01/17 00:42:13;;;;;;;24.07;11.23;;;-1.40;99.90;;;;;;5082451;28;20434;-76
2021/01/17 00:44:39;;;;;;;23.30;11.20;;;-1.30;99.90;;;;;;5082179;28;20701;-77
2021/01/17 00:47:05;;;;;;;19.97;11.13;;;-1.40;99.90;;;;;;5082038;28;20394;-76
2021/01/17 00:49:31;;;;;;;15.70;9.70;;;-1.40;99.90;;;;;;5083627;28;20391;-76
2021/01/17 00:51:57;;;;;;;20.37;11.00;;;-1.30;99.90;;;;;;5081115;28;20262;-76
2021/01/17 00:54:23;;;;;;;23.67;11.30;;;-1.30;99.90;;;;;;5083883;28;20590;-76
2021/01/17 00:56:48;;;;;;;18.20;9.87;;;-1.30;99.90;;;;;;5080725;28;20493;-76
2021/01/17 00:59:14;;;;;;;16.33;9.50;;;-1.30;99.90;;;;;;5083232;28;20208;-76
2021/01/17 01:01:41;;;;;;;18.20;10.40;;;-1.30;99.90;;;;;;5081791;28;20655;-76
2021/01/17 01:04:08;;;;;;;20.27;10.47;;;-1.30;99.90;;;;;;5082316;28;20186;-76
2021/01/17 01:06:34;;;;;;;21.47;11.70;;;-1.30;99.90;;;;;;5082657;28;20426;-76
2021/01/17 01:09:02;;;;;;;19.20;11.03;;;-1.30;99.90;;;;;;5081073;28;20433;-76
2021/01/17 01:11:28;;;;;;;15.43;10.10;;;-1.30;99.90;;;;;;5083471;28;20422;-76
2021/01/17 01:13:53;;;;;;;21.93;11.87;;;-1.30;99.90;;;;;;5080456;28;20401;-76
2021/01/17 01:16:19;;;;;;;19.43;11.00;;;-1.30;99.90;;;;;;5083699;28;20188;-76
2021/01/17 01:18:44;;;;;;;25.07;10.43;;;-1.30;99.90;;;;;;5080658;28;20243;-76
2021/01/17 01:21:11;;;;;;;19.23;10.93;;;-1.30;99.90;;;;;;5082660;28;20180;-76
2021/01/17 01:23:37;;;;;;;19.77;11.57;;;-1.30;99.90;;;;;;5081769;28;20669;-77
2021/01/17 01:26:03;;;;;;;20.53;10.57;;;-1.30;99.90;;;;;;5080843;28;20409;-76
2021/01/17 01:28:28;;;;;;;18.10;10.70;;;-1.30;99.90;;;;;;5082791;28;20710;-76
2021/01/17 01:30:54;;;;;;;17.90;11.17;;;-1.30;99.90;;;;;;5080120;28;20552;-76
2021/01/17 01:33:21;;;;;;;18.37;10.90;;;-1.40;99.90;;;;;;5075687;28;20191;-76
2021/01/17 01:35:47;;;;;;;17.90;10.80;;;-1.40;99.90;;;;;;5082845;28;20444;-76
2021/01/17 01:38:13;;;;;;;19.10;11.30;;;-1.30;99.90;;;;;;5080833;28;20525;-76
2021/01/17 01:40:39;;;;;;;20.40;11.73;;;-1.20;99.90;;;;;;5081435;28;20486;-76
2021/01/17 01:43:04;;;;;;;21.40;12.23;;;-1.20;99.90;;;;;;5082116;28;20558;-77
2021/01/17 01:45:30;;;;;;;25.00;12.87;;;-1.20;99.90;;;;;;5080242;28;20618;-76
2021/01/17 01:47:55;;;;;;;25.33;13.03;;;-1.20;99.90;;;;;;5083185;28;20206;-76
2021/01/17 01:50:21;;;;;;;24.00;13.17;;;-1.20;99.90;;;;;;5079615;28;20186;-76
2021/01/17 01:52:49;;;;;;;27.10;14.63;;;-1.10;99.90;;;;;;5082778;28;20189;-76
2021/01/17 01:55:14;;;;;;;24.37;14.00;;;-1.20;99.90;;;;;;5080391;28;20507;-76
2021/01/17 01:57:41;;;;;;;29.70;14.90;;;-1.30;99.90;;;;;;5081316;28;20477;-76
2021/01/17 02:00:07;;;;;;;25.43;14.30;;;-1.30;99.90;;;;;;5081348;28;20172;-76
2021/01/17 02:02:44;;;;;;;30.37;16.00;;;-1.30;99.90;;;;;;5080418;28;20459;-76
2021/01/17 02:05:10;;;;;;;24.13;15.17;;;-1.40;99.90;;;;;;5080831;28;20497;-76
2021/01/17 02:08:14;;;;;;;28.87;15.80;;;-1.40;99.90;;;;;;5080487;28;20966;-76
2021/01/17 02:10:42;;;;;;;28.83;16.50;;;-1.40;99.90;;;;;;5079645;28;20400;-76
2021/01/17 02:13:45;;;;;;;30.50;16.97;;;-1.50;99.90;;;;;;5081245;28;20550;-76
2021/01/17 02:16:11;;;;;;;31.27;16.13;;;-1.50;99.90;;;;;;4998007;28;20969;-75
2021/01/17 02:18:41;;;;;;;24.00;15.03;;;-1.50;99.90;;;;;;4999038;28;20479;-76
2021/01/17 02:21:08;;;;;;;26.40;16.40;;;-1.50;99.90;;;;;;5038803;28;20798;-76
2021/01/17 02:23:47;;;;;;;30.10;15.73;;;-1.50;99.90;;;;;;5081344;28;20423;-76
2021/01/17 02:26:13;;;;;;;30.90;16.03;;;-1.40;99.90;;;;;;5081542;28;20419;-76
2021/01/17 02:28:41;;;;;;;31.13;17.63;;;-1.50;99.90;;;;;;5080626;28;21072;-76
2021/01/17 02:31:08;;;;;;;30.30;15.50;;;-1.50;99.90;;;;;;5080778;28;20177;-76
2021/01/17 02:33:37;;;;;;;30.10;16.17;;;-1.50;99.90;;;;;;5081171;28;20409;-76
2021/01/17 02:36:14;;;;;;;32.07;17.60;;;-1.50;99.90;;;;;;5080237;28;20435;-76
2021/01/17 02:39:02;;;;;;;27.10;16.50;;;-1.50;99.90;;;;;;5080122;28;20612;-76
2021/01/17 02:41:51;;;;;;;32.73;16.93;;;-1.50;99.90;;;;;;5076026;28;20473;-77
2021/01/17 02:44:19;;;;;;;30.43;16.80;;;-1.40;99.90;;;;;;5079359;28;20440;-77
2021/01/17 02:46:45;;;;;;;29.87;16.60;;;-1.40;99.90;;;;;;5081485;28;20716;-76
2021/01/17 02:49:10;;;;;;;29.20;15.27;;;-1.40;99.90;;;;;;5080297;28;20437;-76
2021/01/17 02:51:36;;;;;;;28.67;15.40;;;-1.40;99.90;;;;;;5080339;28;20231;-76
2021/01/17 02:54:10;;;;;;;24.23;13.20;;;-1.40;99.90;;;;;;5081482;28;20246;-76
2021/01/17 02:56:41;;;;;;;28.23;15.10;;;-1.40;99.90;;;;;;5062090;28;20272;-76
2021/01/17 02:59:13;;;;;;;23.97;13.50;;;-1.30;99.90;;;;;;5083716;28;20475;-77
2021/01/17 03:01:38;;;;;;;24.80;14.23;;;-1.30;99.90;;;;;;5084630;28;20474;-76
2021/01/17 03:04:36;;;;;;;29.30;15.67;;;-1.30;99.90;;;;;;5085080;28;20792;-76
2021/01/17 03:07:05;;;;;;;25.70;15.30;;;-1.30;99.90;;;;;;5080407;28;20569;-76
2021/01/17 03:09:33;;;;;;;22.80;13.13;;;-1.40;99.90;;;;;;5085160;28;20394;-76
2021/01/17 03:12:03;;;;;;;26.60;14.20;;;-1.40;99.90;;;;;;5083148;28;20916;-76
2021/01/17 03:14:31;;;;;;;25.03;13.83;;;-1.40;99.90;;;;;;5085588;28;20416;-76
2021/01/17 03:16:56;;;;;;;25.60;15.17;;;-1.40;99.90;;;;;;5082494;28;20465;-76
2021/01/17 03:19:22;;;;;;;29.50;14.43;;;-1.50;99.90;;;;;;5085945;28;20968;-76
2021/01/17 03:21:47;;;;;;;19.80;12.17;;;-1.40;99.90;;;;;;5082895;28;20648;-76
2021/01/17 03:24:13;;;;;;;24.97;15.00;;;-1.50;99.90;;;;;;5084923;28;20218;-76
2021/01/17 03:26:38;;;;;;;22.00;13.30;;;-1.40;99.90;;;;;;5083833;28;20180;-76
2021/01/17 03:29:04;;;;;;;21.50;12.23;;;-1.40;99.90;;;;;;5083598;28;20231;-76
2021/01/17 03:31:29;;;;;;;21.20;12.47;;;-1.40;99.90;;;;;;5085098;28;20210;-76
2021/01/17 03:33:55;;;;;;;25.70;14.10;;;-1.40;99.90;;;;;;5082431;28;20183;-76
2021/01/17 03:36:20;;;;;;;28.00;13.60;;;-1.40;99.90;;;;;;5085592;28;20253;-76
2021/01/17 03:38:46;;;;;;;27.30;14.90;;;-1.30;99.90;;;;;;5082922;28;20225;-76
2021/01/17 03:41:12;;;;;;;25.60;14.70;;;-1.30;99.90;;;;;;5084520;28;20168;-76
2021/01/17 03:43:38;;;;;;;28.13;14.20;;;-1.30;99.90;;;;;;5083747;28;20184;-76
2021/01/17 03:46:03;;;;;;;23.40;13.63;;;-1.40;99.90;;;;;;5083203;28;20776;-76
2021/01/17 03:48:29;;;;;;;23.20;12.77;;;-1.30;99.90;;;;;;5084636;28;20687;-76
2021/01/17 03:50:54;;;;;;;20.77;13.50;;;-1.30;99.90;;;;;;5082101;28;20699;-76
2021/01/17 03:53:20;;;;;;;22.93;12.40;;;-1.30;99.90;;;;;;5085583;28;20220;-76
2021/01/17 03:55:45;;;;;;;24.67;13.20;;;-1.40;99.90;;;;;;5082420;28;20220;-77
2021/01/17 03:58:11;;;;;;;21.57;13.33;;;-1.30;99.90;;;;;;5083692;28;20281;-76
2021/01/17 04:00:36;;;;;;;25.90;14.43;;;-1.30;99.90;;;;;;5083585;28;20184;-76
2021/01/17 04:03:02;;;;;;;27.30;14.83;;;-1.30;99.90;;;;;;5082781;28;20652;-77
2021/01/17 04:05:27;;;;;;;30.40;14.77;;;-1.30;99.90;;;;;;5084738;28;20255;-75
2021/01/17 04:07:53;;;;;;;26.20;15.90;;;-1.30;99.90;;;;;;5081492;28;20206;-76
2021/01/17 04:10:19;;;;;;;28.07;14.07;;;-1.30;99.90;;;;;;5083920;28;20583;-76
2021/01/17 04:12:44;;;;;;;26.60;14.20;;;-1.30;99.90;;;;;;5082358;28;20193;-77
2021/01/17 04:15:10;;;;;;;22.30;13.23;;;-1.20;99.90;;;;;;5083330;28;20209;-76
2021/01/17 04:17:35;;;;;;;24.53;13.87;;;-1.20;99.90;;;;;;5083158;28;20218;-76
2021/01/17 04:20:01;;;;;;;23.50;13.30;;;-1.20;99.90;;;;;;5082189;28;20523;-76
2021/01/17 04:22:27;;;;;;;24.03;13.20;;;-1.10;99.90;;;;;;5084557;28;20612;-76
2021/01/17 04:24:52;;;;;;;23.23;13.30;;;-1.10;99.90;;;;;;5081313;28;20190;-76
2021/01/17 04:27:18;;;;;;;28.73;15.10;;;-1.10;99.90;;;;;;5084195;28;20655;-76
2021/01/17 04:29:43;;;;;;;22.53;13.80;;;-1.10;99.90;;;;;;5082364;28;20176;-76
2021/01/17 04:32:09;;;;;;;27.63;14.57;;;-1.20;99.90;;;;;;5083015;28;20233;-76
2021/01/17 04:34:35;;;;;;;26.90;14.60;;;-1.30;99.90;;;;;;5083244;28;20202;-76
2021/01/17 04:37:00;;;;;;;26.17;16.10;;;-1.40;99.90;;;;;;5081635;28;20178;-76
2021/01/17 04:39:26;;;;;;;25.13;14.20;;;-1.30;99.90;;;;;;5084353;28;20439;-76
2021/01/17 04:41:57;;;;;;;30.87;15.27;;;-1.30;99.90;;;;;;5081249;28;20260;-76
2021/01/17 04:44:32;;;;;;;23.47;14.47;;;-1.30;99.90;;;;;;5076955;28;20225;-76
2021/01/17 04:47:04;;;;;;;28.13;13.90;;;-1.30;99.90;;;;;;5077994;28;20403;-77
2021/01/17 04:49:32;;;;;;;25.37;14.37;;;-1.30;99.90;;;;;;5083790;28;20398;-75
2021/01/17 04:51:59;;;;;;;25.97;14.93;;;-1.20;99.90;;;;;;5081010;28;20462;-76
2021/01/17 04:54:27;;;;;;;23.73;13.83;;;-1.20;99.90;;;;;;5084065;28;20430;-76
2021/01/17 04:57:00;;;;;;;27.13;15.13;;;-1.20;99.90;;;;;;5076602;28;20796;-76
2021/01/17 04:59:34;;;;;;;24.60;13.00;;;-1.20;99.90;;;;;;5077080;28;20492;-76
2021/01/17 05:02:15;;;;;;;28.37;14.40;;;-1.20;99.90;;;;;;5078162;28;20522;-76
2021/01/17 05:04:44;;;;;;;28.20;15.40;;;-1.20;99.90;;;;;;5081704;28;20439;-76
2021/01/17 05:07:21;;;;;;;27.40;15.13;;;-1.20;99.90;;;;;;5082199;28;20505;-77
2021/01/17 05:09:58;;;;;;;27.53;15.70;;;-1.20;99.90;;;;;;5081005;28;20389;-76
2021/01/17 05:12:35;;;;;;;31.30;14.90;;;-1.20;99.90;;;;;;5075471;28;20400;-77
2021/01/17 05:15:03;;;;;;;26.50;14.70;;;-1.10;99.90;;;;;;5078197;28;20412;-77
2021/01/17 05:17:40;;;;;;;30.57;15.10;;;-1.20;99.90;;;;;;5083015;28;20521;-76
2021/01/17 05:20:07;;;;;;;25.20;13.93;;;-1.10;99.90;;;;;;5081456;28;20391;-76
2021/01/17 05:22:34;;;;;;;30.20;15.20;;;-1.20;99.90;;;;;;5082351;28;20431;-76
2021/01/17 05:25:03;;;;;;;31.03;17.10;;;-1.10;99.90;;;;;;5080716;28;20436;-76
2021/01/17 05:27:28;;;;;;;35.33;15.87;;;-1.10;99.90;;;;;;5082853;28;20407;-76
2021/01/17 05:29:54;;;;;;;26.07;14.23;;;-1.10;99.90;;;;;;5080058;28;20743;-76
2021/01/17 05:32:19;;;;;;;25.37;13.83;;;-1.10;99.90;;;;;;5083307;28;20186;-76
2021/01/17 05:34:45;;;;;;;25.03;13.67;;;-1.10;99.90;;;;;;5080664;28;20214;-77
2021/01/17 05:37:14;;;;;;;27.53;14.67;;;-1.10;99.90;;;;;;5081694;28;20179;-76
2021/01/17 05:39:55;;;;;;;25.50;14.73;;;-1.10;99.90;;;;;;5081189;28;20551;-76
2021/01/17 05:42:38;;;;;;;26.93;15.57;;;-1.00;99.90;;;;;;5083173;28;20882;-77
2021/01/17 05:45:14;;;;;;;28.17;15.93;;;-1.00;99.90;;;;;;5078368;28;20397;-75
2021/01/17 05:47:41;;;;;;;23.40;13.80;;;-1.10;99.90;;;;;;5081000;28;20479;-76
2021/01/17 05:50:08;;;;;;;30.93;16.17;;;-1.00;99.90;;;;;;5081320;28;20732;-77
2021/01/17 05:52:35;;;;;;;24.13;13.57;;;-0.90;99.90;;;;;;5081936;28;20990;-75
2021/01/17 05:55:01;;;;;;;34.83;15.27;;;-0.90;99.90;;;;;;5080197;28;20424;-76
2021/01/17 05:57:28;;;;;;;28.63;14.90;;;-0.90;99.90;;;;;;5082595;28;20433;-77
2021/01/17 05:59:54;;;;;;;24.20;13.20;;;-0.90;99.90;;;;;;5079783;28;20429;-75
2021/01/17 06:02:22;;;;;;;29.90;15.97;;;-0.90;99.90;;;;;;5082916;28;20420;-76
2021/01/17 06:04:49;;;;;;;30.17;16.63;;;-0.90;99.90;;;;;;5079871;28;20208;-75
2021/01/17 06:07:16;;;;;;;31.07;16.57;;;-0.90;99.90;;;;;;5081987;28;20768;-76
2021/01/17 06:09:43;;;;;;;26.70;15.97;;;-0.80;99.90;;;;;;5080881;28;20781;-76
2021/01/17 06:12:10;;;;;;;29.80;16.30;;;-0.80;99.90;;;;;;5081354;28;20391;-75
2021/01/17 06:14:35;;;;;;;28.80;16.67;;;-0.80;99.90;;;;;;5081397;28;20457;-75
2021/01/17 06:17:03;;;;;;;31.37;16.70;;;-0.80;99.90;;;;;;5079755;28;20421;-75
2021/01/17 06:19:37;;;;;;;29.20;16.60;;;-0.80;99.90;;;;;;5082121;28;20261;-76
2021/01/17 06:22:08;;;;;;;34.83;16.83;;;-0.80;99.90;;;;;;5080476;28;20811;-76
2021/01/17 06:24:41;;;;;;;33.07;18.43;;;-0.80;99.90;;;;;;5081336;28;20416;-75
2021/01/17 06:27:08;;;;;;;35.00;15.60;;;-0.80;99.90;;;;;;5080601;28;20392;-75
2021/01/17 06:29:41;;;;;;;30.90;16.03;;;-0.80;99.90;;;;;;5081456;28;20786;-76
2021/01/17 06:32:18;;;;;;;32.77;17.83;;;-0.80;99.90;;;;;;5080065;28;20426;-75
2021/01/17 06:34:48;;;;;;;33.43;17.97;;;-0.80;99.90;;;;;;5079857;28;20455;-76
2021/01/17 06:37:14;;;;;;;31.40;17.40;;;-0.80;99.90;;;;;;5081408;28;20392;-76
2021/01/17 06:39:54;;;;;;;31.33;17.90;;;-0.90;99.90;;;;;;5080339;28;20410;-75
2021/01/17 06:42:23;;;;;;;37.87;19.43;;;-0.80;99.90;;;;;;5082497;28;20403;-75
2021/01/17 06:44:50;;;;;;;37.27;21.40;;;-0.80;99.90;;;;;;5079218;28;20422;-75
2021/01/17 06:47:21;;;;;;;37.00;20.70;;;-0.80;99.90;;;;;;5081552;28;20471;-76
2021/01/17 06:49:48;;;;;;;40.93;20.30;;;-0.80;99.90;;;;;;5079027;28;20409;-75
2021/01/17 06:52:17;;;;;;;36.07;18.97;;;-0.80;99.90;;;;;;5076829;28;20435;-75
2021/01/17 06:54:45;;;;;;;40.00;20.67;;;-0.70;99.90;;;;;;5079647;28;20460;-75
2021/01/17 06:57:12;;;;;;;35.93;18.70;;;-0.80;99.90;;;;;;5080877;28;20392;-75
2021/01/17 06:59:44;;;;;;;40.73;21.47;;;-0.80;99.90;;;;;;5080671;28;20915;-76
2021/01/17 07:02:24;;;;;;;37.83;20.40;;;-0.80;99.90;;;;;;5080654;28;20399;-75
2021/01/17 07:04:53;;;;;;;37.47;18.53;;;-0.80;99.90;;;;;;5079033;28;20457;-76
2021/01/17 07:07:51;;;;;;;35.17;19.80;;;-0.80;99.90;;;;;;5081670;28;20504;-75
2021/01/17 07:10:22;;;;;;;47.30;22.13;;;-0.90;99.90;;;;;;5081291;28;20421;-71
2021/01/17 07:13:04;;;;;;;35.83;19.97;;;-0.90;99.90;;;;;;5079491;28;20918;-73
2021/01/17 07:15:32;;;;;;;42.40;21.50;;;-0.80;99.90;;;;;;5076103;28;20439;-74
2021/01/17 07:18:13;;;;;;;34.10;20.47;;;-0.80;99.90;;;;;;5081598;28;20803;-73
2021/01/17 07:20:40;;;;;;;27.50;16.23;;;-0.80;99.90;;;;;;5080545;28;20390;-73
2021/01/17 07:23:08;;;;;;;35.93;18.77;;;-0.70;99.90;;;;;;5080771;28;20390;-73
2021/01/17 07:25:35;;;;;;;35.17;18.10;;;-0.60;99.90;;;;;;5078364;28;20420;-73
2021/01/17 07:28:07;;;;;;;28.60;16.30;;;-0.70;99.90;;;;;;5081066;28;20391;-73
2021/01/17 07:31:01;;;;;;;28.63;17.50;;;-0.60;99.90;;;;;;5079323;28;20793;-73
2021/01/17 07:33:31;;;;;;;37.37;19.77;;;-0.60;99.90;;;;;;5075067;28;20839;-73
2021/01/17 07:36:03;;;;;;;39.60;19.60;;;-0.50;99.90;;;;;;5082011;28;20423;-73
2021/01/17 07:38:31;;;;;;;30.77;17.47;;;-0.40;99.90;;;;;;5078361;28;20958;-73
2021/01/17 07:41:00;;;;;;;31.73;17.37;;;-0.40;99.90;;;;;;5081839;28;20432;-73
2021/01/17 07:43:38;;;;;;;34.33;16.20;;;-0.50;99.90;;;;;;5078631;28;20391;-73
2021/01/17 07:46:14;;;;;;;32.23;17.10;;;-0.50;99.90;;;;;;5079250;28;20793;-73
2021/01/17 07:48:42;;;;;;;25.20;15.07;;;-0.50;99.90;;;;;;5082764;28;20447;-73
2021/01/17 07:51:10;;;;;;;33.77;16.57;;;-0.40;99.90;;;;;;5083357;28;20916;-73
2021/01/17 07:53:42;;;;;;;29.07;15.83;;;-0.50;99.90;;;;;;5083918;28;20384;-73
2021/01/17 07:56:10;;;;;;;29.30;16.73;;;-0.50;99.90;;;;;;5083376;28;20414;-73
2021/01/17 07:58:45;;;;;;;38.03;17.77;;;-0.40;99.90;;;;;;5083945;28;20488;-73
2021/01/17 08:01:37;;;;;;;31.37;16.47;;;-0.40;99.90;;;;;;5083686;28;20937;-74
2021/01/17 08:04:16;;;;;;;33.67;16.80;;;-0.40;99.90;;;;;;5079960;28;20386;-74
2021/01/17 08:06:41;;;;;;;30.17;16.00;;;-0.40;99.90;;;;;;5082933;28;20913;-73
2021/01/17 08:09:11;;;;;;;31.90;16.70;;;-0.30;99.90;;;;;;5082933;28;20397;-73
2021/01/17 08:11:55;;;;;;;29.97;16.40;;;-0.30;99.90;;;;;;5083530;28;20716;-73
2021/01/17 08:14:23;;;;;;;32.40;14.73;;;-0.30;99.90;;;;;;5085200;28;20502;-73
2021/01/17 08:17:09;;;;;;;28.47;16.50;;;-0.20;99.90;;;;;;5080938;28;20382;-73
2021/01/17 08:19:36;;;;;;;28.73;15.93;;;-0.20;99.90;;;;;;5076126;28;20499;-74
2021/01/17 08:22:17;;;;;;;37.17;17.53;;;-0.20;99.90;;;;;;5081051;28;20522;-73
2021/01/17 08:24:46;;;;;;;31.13;16.30;;;-0.10;99.90;;;;;;5077348;28;20421;-74
2021/01/17 08:27:31;;;;;;;33.77;17.67;;;-0.10;99.90;;;;;;5079463;28;20429;-73
2021/01/17 08:30:03;;;;;;;31.40;16.20;;;0.00;99.90;;;;;;5073093;28;20464;-74
2021/01/17 08:32:28;;;;;;;35.00;16.93;;;0.00;99.90;;;;;;5082616;28;20443;-73
2021/01/17 08:34:54;;;;;;;34.77;16.97;;;0.00;99.90;;;;;;5080275;28;20475;-73
2021/01/17 08:37:19;;;;;;;33.40;16.43;;;0.10;99.90;;;;;;5083947;28;20183;-73
2021/01/17 08:39:47;;;;;;;37.60;18.90;;;0.10;99.90;;;;;;5083427;28;20181;-72
2021/01/17 08:43:00;;;;;;;29.70;17.20;;;0.20;99.90;;;;;;5082176;28;20176;-73
2021/01/17 08:45:26;;;;;;;32.27;17.30;;;0.20;99.90;;;;;;5070425;28;20518;-72
2021/01/17 08:47:52;;;;;;;33.00;18.10;;;0.20;99.90;;;;;;5078895;28;20435;-73
2021/01/17 08:50:37;;;;;;;31.80;16.87;;;0.10;99.90;;;;;;5082869;28;20185;-75
2021/01/17 08:53:21;;;;;;;35.53;17.57;;;0.20;99.90;;;;;;5081786;28;20404;-73
2021/01/17 08:55:51;;;;;;;30.87;18.43;;;0.20;99.90;;;;;;5070935;28;21472;-73
2021/01/17 08:58:25;;;;;;;30.67;18.20;;;0.30;99.90;;;;;;5073873;28;20544;-75
2021/01/17 09:00:51;;;;;;;33.10;17.97;;;0.30;99.90;;;;;;5080093;28;20393;-77
2021/01/17 09:03:36;;;;;;;38.70;19.10;;;0.40;99.90;;;;;;5084794;28;20426;-78
2021/01/17 09:06:01;;;;;;;37.47;18.23;;;0.50;99.90;;;;;;5075805;28;20200;-78
2021/01/17 09:08:29;;;;;;;26.63;17.90;;;0.40;99.90;;;;;;5076105;28;20523;-75
2021/01/17 09:10:55;;;;;;;34.40;17.07;;;0.50;99.90;;;;;;5073965;28;20194;-71
2021/01/17 09:13:22;;;;;;;37.97;17.10;;;0.60;99.90;;;;;;5068760;28;20437;-71
2021/01/17 09:15:57;;;;;;;31.87;17.10;;;0.70;99.90;;;;;;5078964;28;20419;-72
2021/01/17 09:18:24;;;;;;;30.87;16.20;;;0.80;99.90;;;;;;5076261;28;20432;-71
2021/01/17 09:20:54;;;;;;;34.37;18.20;;;0.80;99.90;;;;;;5077233;28;20486;-72
2021/01/17 09:23:22;;;;;;;27.43;15.90;;;0.80;99.90;;;;;;5077034;28;20909;-72
2021/01/17 09:25:55;;;;;;;25.60;15.63;;;0.90;99.90;;;;;;5082558;28;20418;-71
2021/01/17 09:28:20;;;;;;;25.93;14.97;;;1.00;99.90;;;;;;5079909;28;20470;-71
2021/01/17 09:30:50;;;;;;;26.13;14.30;;;1.00;99.90;;;;;;5082283;28;20528;-73
2021/01/17 09:33:17;;;;;;;31.93;15.73;;;1.00;99.90;;;;;;5080424;28;20229;-71
2021/01/17 09:35:44;;;;;;;34.57;16.67;;;1.10;99.90;;;;;;5077379;28;20457;-72
2021/01/17 09:38:14;;;;;;;34.23;16.03;;;1.10;99.90;;;;;;5083209;28;20500;-72
2021/01/17 09:40:40;;;;;;;26.60;15.17;;;1.10;99.90;;;;;;5083002;28;20848;-71
2021/01/17 09:43:07;;;;;;;28.43;15.83;;;1.20;99.90;;;;;;5081363;28;20927;-71
2021/01/17 09:45:33;;;;;;;26.50;14.20;;;1.30;99.90;;;;;;5079876;28;20892;-72
2021/01/17 09:48:00;;;;;;;24.03;15.17;;;1.30;99.90;;;;;;5082417;28;20485;-72
2021/01/17 09:50:33;;;;;;;30.30;16.50;;;1.40;99.90;;;;;;5079368;28;20422;-72
2021/01/17 09:53:07;;;;;;;24.20;13.10;;;1.40;99.90;;;;;;5077788;28;20395;-72
2021/01/17 09:55:39;;;;;;;27.77;16.47;;;1.40;99.90;;;;;;5079515;28;20460;-73
2021/01/17 09:58:09;;;;;;;24.10;13.13;;;1.40;99.90;;;;;;5083074;28;20466;-72
2021/01/17 10:00:36;;;;;;;22.73;14.50;;;1.40;99.90;;;;;;5077204;28;20423;-71
2021/01/17 10:03:12;;;;;;;25.40;14.93;;;1.40;99.90;;;;;;5082274;28;20415;-71
2021/01/17 10:05:39;;;;;;;27.27;15.40;;;1.40;99.90;;;;;;5080848;28;20526;-72
2021/01/17 10:08:07;;;;;;;24.37;15.20;;;1.50;99.90;;;;;;5080243;28;20494;-72
2021/01/17 10:10:46;;;;;;;23.87;14.43;;;1.50;99.90;;;;;;5081235;28;20997;-74
2021/01/17 10:13:13;;;;;;;24.43;15.30;;;1.50;99.90;;;;;;5083092;28;20427;-74
2021/01/17 10:15:40;;;;;;;26.03;16.00;;;1.60;99.90;;;;;;5084023;28;20501;-74
2021/01/17 10:18:06;;;;;;;24.50;14.73;;;1.60;99.90;;;;;;5080333;28;20451;-74
2021/01/17 10:20:33;;;;;;;26.63;15.50;;;1.80;99.90;;;;;;5078953;28;20394;-75
2021/01/17 10:23:04;;;;;;;29.40;15.40;;;1.70;99.90;;;;;;5082194;28;20509;-76
2021/01/17 10:25:31;;;;;;;22.67;15.03;;;1.60;99.90;;;;;;5078801;28;20832;-75
2021/01/17 10:28:03;;;;;;;22.83;13.30;;;1.70;99.90;;;;;;5082433;28;20427;-75
2021/01/17 10:30:30;;;;;;;21.57;13.57;;;1.80;99.90;;;;;;5075263;28;20409;-75
2021/01/17 10:33:09;;;;;;;29.47;13.27;;;1.70;99.90;;;;;;5082523;28;20390;-75
2021/01/17 10:35:37;;;;;;;24.20;14.00;;;1.70;99.90;;;;;;5077308;28;20438;-75
2021/01/17 10:38:05;;;;;;;21.60;13.30;;;1.70;99.90;;;;;;5081096;28;20444;-75
2021/01/17 10:40:31;;;;;;;21.90;13.07;;;1.80;99.90;;;;;;5079133;28;20447;-75
2021/01/17 10:43:00;;;;;;;19.33;11.93;;;1.70;99.90;;;;;;5082263;28;20769;-75
2021/01/17 10:45:27;;;;;;;18.93;10.90;;;1.70;99.90;;;;;;5075209;28;20434;-75
2021/01/17 10:48:14;;;;;;;19.87;10.37;;;1.70;99.90;;;;;;5077925;28;20423;-76
2021/01/17 10:50:48;;;;;;;19.67;10.67;;;1.70;99.90;;;;;;5078729;28;20883;-77
2021/01/17 10:53:25;;;;;;;18.27;10.33;;;1.70;99.90;;;;;;5079913;28;20852;-76
2021/01/17 10:55:54;;;;;;;16.87;10.93;;;1.80;99.90;;;;;;5081776;28;20819;-75
2021/01/17 10:58:32;;;;;;;20.80;10.80;;;2.00;99.90;;;;;;5078479;28;20455;-75
2021/01/17 11:00:59;;;;;;;18.80;11.27;;;2.00;99.90;;;;;;5075404;28;20503;-74
2021/01/17 11:03:32;;;;;;;20.63;10.27;;;2.00;99.90;;;;;;5081942;28;20477;-74
2021/01/17 11:06:08;;;;;;;22.03;10.50;;;2.00;99.90;;;;;;5074013;28;20434;-74
2021/01/17 11:08:50;;;;;;;17.23;10.73;;;2.00;99.90;;;;;;5080137;28;20405;-74
2021/01/17 11:11:16;;;;;;;16.57;9.50;;;2.00;99.90;;;;;;5080105;28;20764;-74
2021/01/17 11:13:42;;;;;;;20.08;12.32;;;2.00;99.90;;;;;;5079377;28;20448;-75
2021/01/17 11:16:09;;;;;;;20.13;11.23;;;2.00;99.90;;;;;;5075985;28;20232;-73
2021/01/17 11:18:36;;;;;;;16.10;10.50;;;2.10;99.90;;;;;;5079152;28;20323;-75
2021/01/17 11:21:04;;;;;;;17.30;11.23;;;2.00;99.90;;;;;;5085250;28;20386;-74
2021/01/17 11:23:30;;;;;;;16.20;11.00;;;2.00;99.90;;;;;;5082431;28;20434;-74
2021/01/17 11:26:00;;;;;;;16.60;9.70;;;2.00;99.90;;;;;;5085613;28;20912;-74
2021/01/17 11:28:28;;;;;;;12.47;9.40;;;2.00;99.90;;;;;;5078150;28;20394;-74
2021/01/17 11:31:10;;;;;;;16.93;10.17;;;2.00;99.90;;;;;;5078032;28;20415;-75
2021/01/17 11:33:36;;;;;;;16.67;9.77;;;2.00;99.90;;;;;;5080974;28;20393;-74
2021/01/17 11:36:02;;;;;;;14.43;10.07;;;1.90;99.90;;;;;;5084608;28;20440;-74
2021/01/17 11:39:04;;;;;;;16.07;10.57;;;2.00;99.90;;;;;;5081452;28;20214;-75
2021/01/17 11:41:35;;;;;;;16.90;9.60;;;2.00;99.90;;;;;;5078868;28;20393;-74
2021/01/17 11:44:09;;;;;;;13.70;8.93;;;1.80;99.90;;;;;;5084830;28;20394;-73
2021/01/17 11:46:35;;;;;;;16.03;9.60;;;1.90;99.90;;;;;;5085616;28;20422;-74
2021/01/17 11:49:01;;;;;;;15.67;9.67;;;1.80;99.90;;;;;;5081988;28;20384;-74
2021/01/17 11:51:27;;;;;;;13.80;9.50;;;1.80;99.90;;;;;;5084995;28;20405;-74
2021/01/17 11:53:52;;;;;;;19.50;10.40;;;1.80;99.90;;;;;;5077459;28;20397;-74
2021/01/17 11:56:18;;;;;;;16.67;10.70;;;1.80;99.90;;;;;;5084741;28;20178;-74
2021/01/17 11:58:44;;;;;;;16.80;10.77;;;1.80;99.90;;;;;;5082140;28;20205;-74
2021/01/17 12:01:10;;;;;;;18.30;11.03;;;1.80;99.90;;;;;;5083112;28;20695;-73
2021/01/17 12:03:38;;;;;;;19.63;12.13;;;1.80;99.90;;;;;;5083603;28;20431;-73
2021/01/17 12:06:06;;;;;;;20.63;12.23;;;1.90;99.90;;;;;;5082266;28;20442;-73
2021/01/17 12:08:50;;;;;;;20.60;11.40;;;1.80;99.90;;;;;;5083698;28;21029;-73
2021/01/17 12:11:37;;;;;;;19.73;12.10;;;1.80;99.90;;;;;;5083875;28;20414;-73
2021/01/17 12:14:11;;;;;;;19.40;12.10;;;1.80;99.90;;;;;;5079208;28;20387;-73
2021/01/17 12:16:45;;;;;;;22.20;13.53;;;1.70;99.90;;;;;;5083007;28;20385;-73
2021/01/17 12:19:12;;;;;;;23.70;13.03;;;1.70;99.90;;;;;;5080705;28;20981;-73
2021/01/17 12:21:39;;;;;;;20.20;12.90;;;1.80;99.90;;;;;;5082220;28;20911;-74
2021/01/17 12:24:07;;;;;;;20.10;12.77;;;1.80;99.90;;;;;;5083552;28;20416;-73
2021/01/17 12:26:32;;;;;;;22.53;12.20;;;1.80;99.90;;;;;;5081319;28;20392;-73
2021/01/17 12:28:58;;;;;;;25.13;14.50;;;1.80;99.90;;;;;;5084332;28;20477;-73
2021/01/17 12:31:25;;;;;;;20.23;13.40;;;1.80;99.90;;;;;;5079620;28;20185;-73
2021/01/17 12:33:51;;;;;;;20.27;12.60;;;1.80;99.90;;;;;;5084214;28;20179;-74
2021/01/17 12:36:20;;;;;;;24.67;14.23;;;1.90;99.90;;;;;;5081473;28;20857;-74
2021/01/17 12:38:46;;;;;;;29.93;15.53;;;1.90;99.90;;;;;;5082924;28;20481;-74
2021/01/17 12:41:17;;;;;;;28.00;15.60;;;1.80;99.90;;;;;;5082260;28;20804;-74
2021/01/17 12:43:43;;;;;;;22.27;13.60;;;1.80;99.90;;;;;;5083716;28;20579;-72